Time;durP1;ratioP1;P1;durP2;ratioP2;P2;SDS_P1;SDS_P2;PMS_P1;PMS_P2;Temp;Humidity;BMP_temperature;BMP_pressure;BME280_temperature;BME280_humidity;BME280_pressure;Samples;Min_cycle;Max_cycle;Signal;HPM_P1;HPM_P2
2022/03/05 00:01:01;;;;;;;40.25;11.38;;;;;;;-0.76;83.99;102049.91;5095756;28;20023;-85
2022/03/05 00:03:26;;;;;;;36.22;11.15;;;;;;;-0.75;84.81;102066.06;5089112;28;20052;-85
2022/03/05 00:05:52;;;;;;;39.80;11.93;;;;;;;-0.80;84.66;102061.63;5093761;28;20131;-85
2022/03/05 00:08:17;;;;;;;37.75;12.18;;;;;;;-0.85;85.32;102055.50;5089017;28;20047;-85
2022/03/05 00:10:42;;;;;;;34.80;10.80;;;;;;;-0.84;84.89;102053.81;5091757;28;20385;-85
2022/03/05 00:13:08;;;;;;;35.03;11.77;;;;;;;-0.85;85.49;102059.72;5089614;28;20027;-86
2022/03/05 00:15:34;;;;;;;42.63;11.90;;;;;;;-0.87;85.49;102054.56;5095208;28;20415;-85
2022/03/05 00:17:59;;;;;;;40.97;12.77;;;;;;;-0.87;85.77;102061.31;5090207;28;20039;-86
2022/03/05 00:20:25;;;;;;;39.15;11.73;;;;;;;-0.90;85.41;102051.91;5097273;28;20024;-86
2022/03/05 00:22:53;;;;;;;38.03;11.18;;;;;;;-0.93;85.40;102059.38;5093319;28;20036;-86
2022/03/05 00:25:24;;;;;;;37.80;12.10;;;;;;;-0.96;85.83;102051.63;5091955;28;20389;-86
2022/03/05 00:27:51;;;;;;;37.90;11.45;;;;;;;-1.02;85.75;102050.47;5107164;28;20036;-85
2022/03/05 00:30:16;;;;;;;48.92;13.05;;;;;;;-1.04;86.09;102060.63;5094793;28;20491;-86
2022/03/05 00:32:42;;;;;;;39.53;12.48;;;;;;;-1.05;87.07;102063.09;5093586;28;20070;-85
2022/03/05 00:35:11;;;;;;;38.00;12.20;;;;;;;-1.07;86.21;102057.94;5088778;28;20031;-86
2022/03/05 00:37:36;;;;;;;41.63;12.88;;;;;;;-1.09;86.52;102064.63;5089254;28;20498;-85
2022/03/05 00:40:02;;;;;;;44.17;13.32;;;;;;;-1.11;87.12;102066.25;5097461;28;20103;-86
2022/03/05 00:42:28;;;;;;;42.88;12.88;;;;;;;-1.12;87.31;102072.13;5088757;28;20027;-85
2022/03/05 00:44:53;;;;;;;39.63;12.80;;;;;;;-1.17;86.12;102063.44;5098466;28;20039;-85
2022/03/05 00:47:18;;;;;;;42.22;12.60;;;;;;;-1.16;87.17;102061.75;5093135;28;20097;-85
2022/03/05 00:49:44;;;;;;;43.92;13.93;;;;;;;-1.16;87.30;102062.59;5070176;28;20077;-85
2022/03/05 00:52:09;;;;;;;39.33;11.95;;;;;;;-1.18;87.48;102065.91;5095545;28;20400;-85
2022/03/05 00:54:35;;;;;;;38.42;12.25;;;;;;;-1.21;87.08;102056.47;5094221;28;20035;-85
2022/03/05 00:57:00;;;;;;;41.92;13.25;;;;;;;-1.27;86.85;102054.53;5087096;28;20035;-85
2022/03/05 00:59:26;;;;;;;43.92;12.35;;;;;;;-1.27;87.40;102048.56;5086663;28;20020;-85
2022/03/05 01:01:51;;;;;;;43.47;12.63;;;;;;;-1.32;87.46;102050.03;5082469;28;20024;-86
2022/03/05 01:04:17;;;;;;;43.30;12.50;;;;;;;-1.33;87.47;102053.38;5086734;28;20044;-85
2022/03/05 01:06:42;;;;;;;42.72;13.00;;;;;;;-1.36;87.25;102049.03;5088125;28;20034;-85
2022/03/05 01:09:10;;;;;;;44.92;13.35;;;;;;;-1.39;88.10;102050.59;5087263;28;20088;-86
2022/03/05 01:11:37;;;;;;;43.78;12.73;;;;;;;-1.42;88.13;102046.22;5087989;28;20024;-85
2022/03/05 01:14:02;;;;;;;37.65;12.45;;;;;;;-1.42;88.22;102042.81;5091018;28;20031;-85
2022/03/05 01:16:28;;;;;;;44.13;13.75;;;;;;;-1.44;88.73;102045.31;5102459;28;20129;-85
2022/03/05 01:18:53;;;;;;;43.00;13.07;;;;;;;-1.44;88.14;102045.31;5091688;28;20028;-85
2022/03/05 01:21:18;;;;;;;39.22;12.40;;;;;;;-1.45;87.85;102051.19;5097709;28;20028;-85
2022/03/05 01:23:44;;;;;;;48.15;13.32;;;;;;;-1.47;88.15;102040.06;5091448;28;20042;-85
2022/03/05 01:26:09;;;;;;;38.50;13.02;;;;;;;-1.48;88.19;102040.88;5090951;28;20039;-85
2022/03/05 01:28:34;;;;;;;41.63;13.45;;;;;;;-1.49;88.95;102043.34;5090338;28;20077;-85
2022/03/05 01:31:00;;;;;;;44.03;13.25;;;;;;;-1.53;88.67;102049.09;5090145;28;20023;-86
2022/03/05 01:33:25;;;;;;;46.22;13.32;;;;;;;-1.52;88.23;102051.72;5072123;28;20166;-85
2022/03/05 01:35:51;;;;;;;43.47;13.18;;;;;;;-1.56;88.71;102043.88;5089796;28;20031;-85
2022/03/05 01:38:17;;;;;;;46.70;13.68;;;;;;;-1.57;89.15;102037.94;5072932;28;20034;-85
2022/03/05 01:40:43;;;;;;;43.88;13.13;;;;;;;-1.61;89.04;102036.03;5103321;28;20023;-86
2022/03/05 01:43:09;;;;;;;44.85;12.45;;;;;;;-1.64;88.87;102035.94;5090192;28;20036;-85
2022/03/05 01:45:35;;;;;;;41.28;13.02;;;;;;;-1.63;88.99;102043.59;5089264;28;20023;-85
2022/03/05 01:48:01;;;;;;;41.90;13.35;;;;;;;-1.64;89.40;102043.56;5090912;28;20028;-85
2022/03/05 01:50:27;;;;;;;45.55;13.93;;;;;;;-1.66;88.78;102046.00;5104394;28;20024;-84
2022/03/05 01:52:53;;;;;;;44.72;13.23;;;;;;;-1.69;89.20;102038.25;5087430;28;20035;-85
2022/03/05 01:55:18;;;;;;;39.78;12.85;;;;;;;-1.73;89.13;102044.00;5071774;28;20484;-85
2022/03/05 01:57:44;;;;;;;43.55;12.82;;;;;;;-1.76;89.23;102043.84;5076528;28;20776;-85
2022/03/05 02:00:11;;;;;;;42.70;12.95;;;;;;;-1.79;89.31;102045.41;5089794;28;20028;-86
2022/03/05 02:02:36;;;;;;;43.25;12.65;;;;;;;-1.80;89.79;102036.91;5087618;28;20035;-85
2022/03/05 02:05:02;;;;;;;47.17;14.05;;;;;;;-1.85;89.99;102033.28;5088032;28;20060;-86
2022/03/05 02:07:29;;;;;;;44.20;13.20;;;;;;;-1.84;90.01;102042.63;5090090;28;20480;-85
2022/03/05 02:09:54;;;;;;;41.70;12.95;;;;;;;-1.87;89.62;102042.50;5087986;28;20028;-85
2022/03/05 02:12:26;;;;;;;44.00;12.70;;;;;;;-1.90;89.19;102044.88;5090426;28;20036;-85
2022/03/05 02:14:52;;;;;;;41.83;13.25;;;;;;;-1.93;88.87;102052.38;5083003;28;20043;-85
2022/03/05 02:17:17;;;;;;;42.58;12.75;;;;;;;-1.95;89.14;102053.09;5087265;28;20032;-84
2022/03/05 02:19:42;;;;;;;43.15;12.15;;;;;;;-1.98;89.44;102053.84;5089142;28;20027;-85
2022/03/05 02:22:10;;;;;;;40.67;12.90;;;;;;;-2.01;90.10;102048.63;5087841;28;20023;-84
2022/03/05 02:24:37;;;;;;;41.65;13.15;;;;;;;-2.03;89.81;102045.13;5091219;28;20032;-85
2022/03/05 02:27:04;;;;;;;46.40;13.73;;;;;;;-2.04;90.17;102039.16;5077370;28;20116;-85
2022/03/05 02:29:34;;;;;;;46.13;13.38;;;;;;;-2.04;90.07;102046.78;5095824;28;20598;-86
2022/03/05 02:32:00;;;;;;;44.83;12.93;;;;;;;-2.07;90.39;102038.19;5092974;28;20032;-85
2022/03/05 02:34:26;;;;;;;43.15;13.52;;;;;;;-2.09;90.46;102034.69;5095291;28;20096;-85
2022/03/05 02:36:51;;;;;;;43.10;12.88;;;;;;;-2.12;90.51;102029.47;5096233;28;20112;-85
2022/03/05 02:39:17;;;;;;;46.63;13.27;;;;;;;-2.16;90.55;102033.53;5093432;28;20032;-85
2022/03/05 02:41:42;;;;;;;44.40;13.38;;;;;;;-2.16;90.44;102033.53;5089602;28;20496;-85
2022/03/05 02:44:09;;;;;;;44.15;13.05;;;;;;;-2.19;90.41;102024.91;5080037;28;20023;-85
2022/03/05 02:46:35;;;;;;;46.55;13.32;;;;;;;-2.21;90.00;102031.56;5093453;28;20062;-85
2022/03/05 02:49:01;;;;;;;40.88;12.35;;;;;;;-2.23;90.61;102031.50;5086695;28;20055;-85
2022/03/05 02:51:26;;;;;;;45.03;12.88;;;;;;;-2.25;90.89;102032.25;5080324;28;20116;-85
2022/03/05 02:53:52;;;;;;;45.58;13.27;;;;;;;-2.29;90.65;102027.81;5098061;28;20116;-85
2022/03/05 02:56:17;;;;;;;49.78;13.25;;;;;;;-2.30;91.03;102026.06;5087432;28;20096;-85
2022/03/05 02:58:42;;;;;;;46.42;13.00;;;;;;;-2.31;90.73;102025.19;5087057;28;20118;-85
2022/03/05 03:01:08;;;;;;;42.42;12.95;;;;;;;-2.35;90.79;102024.97;5089389;28;20035;-86
2022/03/05 03:03:34;;;;;;;44.53;13.43;;;;;;;-2.36;91.03;102016.50;5088303;28;20040;-86
2022/03/05 03:05:59;;;;;;;46.65;13.55;;;;;;;-2.38;91.34;102018.94;5071616;28;20031;-86
2022/03/05 03:08:24;;;;;;;42.63;12.48;;;;;;;-2.39;91.09;102016.38;5090474;28;20024;-85
2022/03/05 03:10:49;;;;;;;44.60;13.48;;;;;;;-2.41;91.53;102016.28;5075715;28;20024;-86
2022/03/05 03:13:15;;;;;;;45.92;13.13;;;;;;;-2.44;91.32;102012.72;5087857;28;20043;-85
2022/03/05 03:15:40;;;;;;;45.58;13.50;;;;;;;-2.44;91.71;102015.25;5082694;28;20089;-85
2022/03/05 03:18:05;;;;;;;46.00;13.05;;;;;;;-2.49;91.33;102004.88;5070443;28;20035;-85
2022/03/05 03:20:31;;;;;;;44.42;12.98;;;;;;;-2.51;91.16;102001.41;5089254;28;20051;-86
2022/03/05 03:22:56;;;;;;;42.15;13.45;;;;;;;-2.53;91.54;102002.16;5070922;28;20107;-85
2022/03/05 03:25:22;;;;;;;48.17;13.43;;;;;;;-2.52;91.93;102006.41;5098713;28;20023;-85
2022/03/05 03:27:49;;;;;;;48.58;14.07;;;;;;;-2.52;92.17;102007.25;5094880;28;20332;-85
2022/03/05 03:30:16;;;;;;;47.35;13.65;;;;;;;-2.54;91.63;102015.63;5068183;28;20115;-85
2022/03/05 03:32:43;;;;;;;44.75;13.10;;;;;;;-2.57;91.65;102011.25;5080481;28;20024;-85
2022/03/05 03:35:09;;;;;;;44.47;13.65;;;;;;;-2.57;91.97;102008.72;5081669;28;20032;-85
2022/03/05 03:37:36;;;;;;;53.33;13.95;;;;;;;-2.59;92.35;102010.31;5070030;28;20040;-85
2022/03/05 03:40:04;;;;;;;47.70;13.80;;;;;;;-2.59;92.38;102009.47;5066626;28;20020;-85
2022/03/05 03:42:29;;;;;;;48.53;13.35;;;;;;;-2.60;92.29;102018.75;5070929;28;20032;-85
2022/03/05 03:44:55;;;;;;;48.90;14.02;;;;;;;-2.61;92.54;102013.59;5099668;28;20384;-85
2022/03/05 03:47:21;;;;;;;48.97;13.55;;;;;;;-2.62;92.23;102022.88;5070239;28;20054;-85
2022/03/05 03:49:47;;;;;;;43.45;13.00;;;;;;;-2.66;92.19;102015.88;5088667;28;20413;-85
2022/03/05 03:52:16;;;;;;;48.58;13.57;;;;;;;-2.65;92.33;102016.75;5091185;28;20027;-85
2022/03/05 03:54:43;;;;;;;47.40;13.55;;;;;;;-2.67;92.63;102021.78;5089673;28;20481;-85
2022/03/05 03:57:09;;;;;;;44.88;12.95;;;;;;;-2.70;92.58;102021.63;5086391;28;20043;-85
2022/03/05 03:59:35;;;;;;;46.80;13.93;;;;;;;-2.72;92.14;102024.88;5087164;28;20043;-85
2022/03/05 04:02:02;;;;;;;45.67;13.98;;;;;;;-2.73;92.42;102029.09;5070727;28;20038;-85
2022/03/05 04:04:28;;;;;;;47.60;13.68;;;;;;;-2.74;92.80;102022.28;5087359;28;20417;-85
2022/03/05 04:09:37;;;;;;;41.10;12.35;;;;;;;-2.80;91.82;102029.59;5089077;28;20503;-85
2022/03/05 04:12:03;;;;;;;48.17;13.63;;;;;;;-2.82;92.25;102031.16;5088397;28;20020;-84
2022/03/05 04:14:28;;;;;;;51.33;13.77;;;;;;;-2.86;92.68;102020.00;5097070;28;20025;-83
2022/03/05 04:16:54;;;;;;;48.22;13.38;;;;;;;-2.87;93.13;102023.34;5107978;28;20060;-83
2022/03/05 04:19:19;;;;;;;47.05;13.85;;;;;;;-2.85;93.17;102031.00;5072303;28;20032;-84
2022/03/05 04:21:44;;;;;;;47.17;13.70;;;;;;;-2.90;92.95;102028.25;5086939;28;20025;-84
2022/03/05 04:24:09;;;;;;;45.90;13.27;;;;;;;-2.91;92.64;102028.16;5087689;28;20035;-84
2022/03/05 04:26:35;;;;;;;50.47;14.95;;;;;;;-2.94;92.94;102036.53;5088616;28;20089;-84
2022/03/05 04:29:00;;;;;;;47.03;14.38;;;;;;;-2.92;93.44;102028.97;5085057;28;20039;-84
2022/03/05 04:31:26;;;;;;;48.78;14.20;;;;;;;-2.93;94.03;102033.16;5087512;28;20031;-84
2022/03/05 04:33:51;;;;;;;50.25;14.23;;;;;;;-2.97;92.98;102035.47;5069956;28;20027;-84
2022/03/05 04:36:16;;;;;;;47.00;13.52;;;;;;;-2.95;93.47;102033.91;5084712;28;20043;-84
2022/03/05 04:38:41;;;;;;;52.80;15.63;;;;;;;-2.99;93.44;102039.59;5068710;28;20020;-84
2022/03/05 04:41:07;;;;;;;51.60;14.18;;;;;;;-2.98;93.64;102041.34;5096127;28;20032;-84
2022/03/05 04:43:33;;;;;;;56.13;15.23;;;;;;;-2.98;93.98;102044.75;5086121;28;20095;-84
2022/03/05 04:45:58;;;;;;;48.45;14.85;;;;;;;-3.00;94.00;102041.25;5079863;28;20107;-84
2022/03/05 04:48:23;;;;;;;52.42;14.82;;;;;;;-2.98;93.88;102048.94;5089072;28;20185;-84
2022/03/05 04:50:49;;;;;;;52.78;15.77;;;;;;;-2.98;93.69;102054.03;5092870;28;20028;-84
2022/03/05 04:53:15;;;;;;;50.50;14.52;;;;;;;-2.99;94.36;102050.63;5094051;28;20042;-84
2022/03/05 04:55:41;;;;;;;53.75;15.45;;;;;;;-2.99;94.41;102039.59;5096573;28;20020;-84
2022/03/05 04:58:07;;;;;;;52.03;15.32;;;;;;;-3.02;94.25;102045.41;5093309;28;20432;-84
2022/03/05 05:00:32;;;;;;;48.35;15.52;;;;;;;-3.02;94.13;102047.06;5090018;28;20473;-84
2022/03/05 05:02:57;;;;;;;48.60;15.18;;;;;;;-3.03;93.92;102050.38;5091943;28;20073;-84
2022/03/05 05:05:24;;;;;;;53.72;15.07;;;;;;;-3.12;94.20;102034.69;5092726;28;20048;-84
2022/03/05 05:07:49;;;;;;;54.72;15.00;;;;;;;-3.02;94.29;102047.06;5091719;28;20081;-84
2022/03/05 05:10:14;;;;;;;58.58;14.98;;;;;;;-3.01;94.31;102058.97;5091113;28;20035;-84
2022/03/05 05:12:40;;;;;;;52.55;16.10;;;;;;;-3.02;94.51;102063.16;5090984;28;20032;-84
2022/03/05 05:15:05;;;;;;;53.47;16.23;;;;;;;-3.02;93.94;102062.28;5073089;28;20032;-84
2022/03/05 05:17:37;;;;;;;56.88;14.60;;;;;;;-3.02;94.75;102060.63;5103180;28;20020;-84
2022/03/05 05:20:07;;;;;;;51.92;15.82;;;;;;;-3.01;94.93;102057.28;5072640;28;20107;-84
2022/03/05 05:22:33;;;;;;;52.97;15.82;;;;;;;-3.01;94.75;102053.88;5079679;28;20521;-84
2022/03/05 05:25:00;;;;;;;51.38;14.95;;;;;;;-3.02;95.10;102060.63;5092795;28;20046;-84
2022/03/05 05:27:25;;;;;;;56.25;15.65;;;;;;;-3.03;94.87;102058.88;5090216;28;20039;-84
2022/03/05 05:29:51;;;;;;;52.55;15.90;;;;;;;-3.05;94.62;102068.06;5071151;28;20032;-84
2022/03/05 05:32:17;;;;;;;55.30;16.02;;;;;;;-3.04;94.47;102058.78;5090591;28;20032;-84
2022/03/05 05:34:42;;;;;;;51.13;15.40;;;;;;;-3.08;94.39;102067.03;5090973;28;20039;-84
2022/03/05 05:37:08;;;;;;;51.60;14.90;;;;;;;-3.12;94.35;102066.00;5075720;28;20019;-84
2022/03/05 05:39:33;;;;;;;57.10;16.38;;;;;;;-3.11;94.85;102071.94;5094384;28;20520;-84
2022/03/05 05:41:59;;;;;;;50.38;15.13;;;;;;;-3.12;94.61;102072.75;5088186;28;20054;-84
2022/03/05 05:44:24;;;;;;;55.75;15.35;;;;;;;-3.14;94.76;102075.22;5086907;28;20020;-84
2022/03/05 05:46:49;;;;;;;54.00;15.27;;;;;;;-3.14;94.78;102077.75;5090868;28;20035;-84
2022/03/05 05:49:15;;;;;;;49.97;15.95;;;;;;;-3.15;94.70;102075.13;5090048;28;20024;-84
2022/03/05 05:51:40;;;;;;;57.83;15.82;;;;;;;-3.14;94.81;102079.41;5106772;28;20058;-84
2022/03/05 05:54:06;;;;;;;54.95;15.35;;;;;;;-3.14;95.07;102076.88;5074135;28;20028;-84
2022/03/05 05:56:31;;;;;;;55.38;15.13;;;;;;;-3.17;95.07;102066.56;5088733;28;20024;-84
2022/03/05 05:58:56;;;;;;;52.67;14.82;;;;;;;-3.19;94.71;102072.44;5087579;28;20081;-83
2022/03/05 06:01:22;;;;;;;54.50;15.02;;;;;;;-3.17;94.89;102076.72;5086401;28;20489;-84
2022/03/05 06:03:49;;;;;;;56.63;16.17;;;;;;;-3.19;95.28;102067.34;5090385;28;20303;-84
2022/03/05 06:06:14;;;;;;;45.58;14.27;;;;;;;-3.17;94.99;102075.03;5090514;28;20746;-84
2022/03/05 06:08:40;;;;;;;58.80;15.63;;;;;;;-3.19;94.88;102072.44;5090010;28;20498;-84
2022/03/05 06:11:09;;;;;;;55.28;15.50;;;;;;;-3.20;94.62;102072.34;5077304;28;20028;-84
2022/03/05 06:13:34;;;;;;;57.80;15.27;;;;;;;-3.20;94.85;102075.75;5088488;28;20035;-84
2022/03/05 06:15:59;;;;;;;55.15;15.55;;;;;;;-3.21;94.96;102073.16;5087457;28;20054;-84
2022/03/05 06:18:25;;;;;;;50.88;15.25;;;;;;;-3.19;94.97;102069.00;5086555;28;20439;-84
2022/03/05 06:20:50;;;;;;;58.47;16.58;;;;;;;-3.21;95.00;102071.47;5090535;28;20020;-85
2022/03/05 06:23:18;;;;;;;61.53;16.48;;;;;;;-3.19;95.26;102069.88;5093517;28;20148;-84
2022/03/05 06:25:43;;;;;;;56.33;15.25;;;;;;;-3.16;95.27;102070.84;5103880;28;20388;-84
2022/03/05 06:28:09;;;;;;;60.90;16.83;;;;;;;-3.17;95.25;102080.13;5073163;28;20035;-84
2022/03/05 06:30:34;;;;;;;52.55;15.00;;;;;;;-3.12;94.97;102086.28;5073008;28;20028;-85
2022/03/05 06:32:59;;;;;;;57.53;15.63;;;;;;;-3.12;95.10;102080.34;5089690;28;20495;-84
2022/03/05 06:35:25;;;;;;;57.72;16.17;;;;;;;-3.11;94.97;102082.09;5085349;28;20050;-84
2022/03/05 06:37:50;;;;;;;51.40;14.63;;;;;;;-3.09;95.07;102071.25;5091709;28;20441;-84
2022/03/05 06:40:15;;;;;;;50.40;15.07;;;;;;;-3.07;94.81;102073.88;5092076;28;20020;-84
2022/03/05 06:42:42;;;;;;;56.38;14.93;;;;;;;-3.01;94.99;102079.25;5090744;28;20059;-84
2022/03/05 06:45:08;;;;;;;54.92;15.50;;;;;;;-2.99;94.95;102077.63;5101812;28;20085;-83
2022/03/05 06:47:36;;;;;;;54.20;15.80;;;;;;;-2.96;95.03;102082.88;5105764;28;20079;-82
2022/03/05 06:50:01;;;;;;;63.55;16.90;;;;;;;-2.94;94.79;102083.84;5086106;28;20024;-84
2022/03/05 06:52:27;;;;;;;63.58;17.25;;;;;;;-2.90;94.64;102083.19;5089762;28;20043;-84
2022/03/05 06:54:52;;;;;;;58.50;15.45;;;;;;;-2.82;94.92;102080.25;5090035;28;20393;-84
2022/03/05 06:57:17;;;;;;;56.33;15.57;;;;;;;-2.75;94.98;102081.41;5089834;28;20389;-84
2022/03/05 06:59:43;;;;;;;53.58;15.80;;;;;;;-2.67;94.87;102092.81;5090486;28;20032;-85
2022/03/05 07:02:08;;;;;;;59.50;15.38;;;;;;;-2.54;95.59;102087.56;5071652;28;20038;-85
2022/03/05 07:04:33;;;;;;;59.55;16.48;;;;;;;-1.83;96.17;102090.09;5099840;28;20353;-84
2022/03/05 07:06:59;;;;;;;67.18;16.98;;;;;;;-0.77;94.99;102088.91;5089972;28;20043;-84
2022/03/05 07:09:24;;;;;;;63.55;16.45;;;;;;;0.00;89.63;102086.13;5087337;28;20067;-85
2022/03/05 07:11:49;;;;;;;58.88;16.38;;;;;;;0.25;86.30;102090.47;5090311;28;20412;-85
2022/03/05 07:14:15;;;;;;;51.78;15.65;;;;;;;0.28;85.87;102094.00;5086686;28;20107;-85
2022/03/05 07:16:40;;;;;;;53.90;15.55;;;;;;;0.12;83.79;102099.34;5088334;28;20028;-85
2022/03/05 07:19:05;;;;;;;52.55;15.82;;;;;;;-0.21;84.63;102095.47;5090764;28;20369;-85
2022/03/05 07:21:31;;;;;;;49.67;14.63;;;;;;;-0.45;85.13;102110.59;5090108;28;20028;-85
2022/03/05 07:23:58;;;;;;;57.05;14.25;;;;;;;-0.57;86.14;102103.34;5090411;28;20028;-85
2022/03/05 07:26:24;;;;;;;49.15;15.63;;;;;;;-0.55;85.60;102117.00;5094904;28;20027;-85
2022/03/05 07:28:50;;;;;;;55.67;16.80;;;;;;;-0.59;85.73;102117.66;5072458;28;20438;-85
2022/03/05 07:31:15;;;;;;;55.45;18.15;;;;;;;-0.60;85.85;102120.16;5097821;28;20035;-85
2022/03/05 07:33:40;;;;;;;60.75;19.45;;;;;;;-0.64;85.77;102110.66;5093369;28;20304;-85
2022/03/05 07:36:06;;;;;;;59.90;19.27;;;;;;;-0.71;85.96;102112.06;5072229;28;20631;-85
2022/03/05 07:38:32;;;;;;;58.72;20.23;;;;;;;-0.80;86.25;102110.00;5085889;28;20027;-86
2022/03/05 07:40:57;;;;;;;58.60;20.67;;;;;;;-0.79;87.14;102113.41;5088049;28;20286;-86
2022/03/05 07:43:23;;;;;;;61.47;18.77;;;;;;;-0.70;86.69;102103.63;5090005;28;20219;-86
2022/03/05 07:45:48;;;;;;;59.42;17.50;;;;;;;-0.66;86.88;102114.78;5087201;28;20432;-86
2022/03/05 07:48:14;;;;;;;58.30;17.63;;;;;;;-0.67;86.82;102111.38;5070351;28;20463;-86
2022/03/05 07:50:41;;;;;;;56.20;16.70;;;;;;;-0.66;87.05;102105.50;5089365;28;20031;-87
2022/03/05 07:53:06;;;;;;;57.00;16.25;;;;;;;-0.42;87.93;102113.28;5098297;28;20039;-87
2022/03/05 07:55:32;;;;;;;52.33;15.90;;;;;;;-0.08;86.03;102111.28;5089439;28;20423;-86
2022/03/05 07:57:57;;;;;;;57.28;16.73;;;;;;;0.12;85.03;102111.22;5092905;28;20024;-87
2022/03/05 08:00:22;;;;;;;47.95;15.73;;;;;;;0.22;83.88;102115.84;5068254;28;20059;-86
2022/03/05 08:02:48;;;;;;;56.25;16.88;;;;;;;0.39;83.70;102122.47;5089204;28;20088;-85
2022/03/05 08:05:13;;;;;;;50.88;15.63;;;;;;;0.57;83.56;102123.16;5070772;28;20398;-86
2022/03/05 08:07:39;;;;;;;62.25;17.10;;;;;;;0.88;84.24;102129.41;5108172;28;20032;-86
2022/03/05 08:10:07;;;;;;;54.60;15.60;;;;;;;1.22;81.34;102122.13;5100417;28;20025;-87
2022/03/05 08:12:33;;;;;;;57.15;15.73;;;;;;;1.36;80.79;102132.81;5076444;28;20160;-86
2022/03/05 08:15:02;;;;;;;52.47;15.75;;;;;;;1.55;80.41;102132.59;5095304;28;20067;-86
2022/03/05 08:17:27;;;;;;;51.30;16.63;;;;;;;2.03;79.22;102128.22;5088660;28;20019;-86
2022/03/05 08:19:53;;;;;;;50.50;16.10;;;;;;;2.59;78.28;102139.34;5071192;28;20160;-87
2022/03/05 08:22:18;;;;;;;53.37;16.70;;;;;;;3.40;76.17;102127.09;5093019;28;20477;-86
2022/03/05 08:24:43;;;;;;;50.50;16.00;;;;;;;4.54;70.94;102120.41;5091735;28;20286;-86
2022/03/05 08:27:08;;;;;;;47.47;15.68;;;;;;;6.11;69.75;102121.63;5092959;28;20342;-86
2022/03/05 08:29:34;;;;;;;45.47;14.73;;;;;;;7.77;63.36;102102.94;5076737;28;20062;-86
2022/03/05 08:31:59;;;;;;;43.53;13.90;;;;;;;9.01;59.28;102120.88;5092608;28;20278;-86
2022/03/05 08:34:25;;;;;;;45.05;15.35;;;;;;;9.42;55.98;102119.25;5101969;28;20439;-86
2022/03/05 08:36:50;;;;;;;46.45;14.80;;;;;;;9.57;56.41;102114.94;5099834;28;20039;-86
2022/03/05 08:39:15;;;;;;;46.85;14.95;;;;;;;9.77;56.79;102115.81;5100045;28;20039;-86
2022/03/05 08:41:41;;;;;;;46.55;15.70;;;;;;;9.99;52.85;102114.94;5093315;28;20027;-86
2022/03/05 08:44:06;;;;;;;46.63;15.45;;;;;;;10.12;53.31;102119.25;5093437;28;20031;-86
2022/03/05 08:46:31;;;;;;;44.92;15.80;;;;;;;9.75;49.41;102121.03;5087398;28;20516;-86
2022/03/05 08:48:57;;;;;;;43.58;15.02;;;;;;;9.56;53.86;102119.25;5108524;28;20062;-86
2022/03/05 08:51:22;;;;;;;42.95;15.43;;;;;;;9.33;53.92;102121.84;5085163;28;20089;-86
2022/03/05 08:53:48;;;;;;;42.00;14.55;;;;;;;8.73;54.53;102119.06;5093258;28;20115;-86
2022/03/05 08:56:13;;;;;;;46.92;14.98;;;;;;;7.99;54.26;102116.84;5092664;28;20078;-86
2022/03/05 08:58:38;;;;;;;42.83;15.35;;;;;;;7.43;56.16;102114.66;5075009;28;20028;-86
2022/03/05 09:01:04;;;;;;;44.83;16.13;;;;;;;6.98;56.66;102126.22;5093074;28;20104;-86
2022/03/05 09:03:29;;;;;;;45.55;16.40;;;;;;;6.55;58.61;102118.81;5090569;28;20052;-86
2022/03/05 09:05:55;;;;;;;46.58;15.68;;;;;;;6.09;60.44;102120.72;5082591;28;20035;-86
2022/03/05 09:08:20;;;;;;;45.95;16.13;;;;;;;5.79;63.97;102122.78;5092916;28;20412;-86
2022/03/05 09:10:46;;;;;;;46.60;15.80;;;;;;;5.47;62.77;102115.38;5082328;28;20107;-86
2022/03/05 09:13:12;;;;;;;43.80;15.25;;;;;;;5.17;64.31;102122.56;5113278;28;20404;-86
2022/03/05 09:15:38;;;;;;;47.15;15.30;;;;;;;4.95;65.02;102113.56;5113649;28;20059;-86
2022/03/05 09:18:04;;;;;;;49.03;16.27;;;;;;;4.91;66.25;102123.75;5113762;28;20035;-86
2022/03/05 09:20:30;;;;;;;44.20;16.85;;;;;;;4.71;64.59;102116.47;5114165;28;20008;-85
2022/03/05 09:22:55;;;;;;;52.03;16.50;;;;;;;4.51;65.17;102116.91;5105778;28;20077;-86
2022/03/05 09:25:21;;;;;;;45.70;16.15;;;;;;;4.37;67.00;102119.16;5099879;28;20027;-86
2022/03/05 09:27:47;;;;;;;47.35;16.13;;;;;;;4.40;66.07;102116.69;5100948;28;20028;-86
2022/03/05 09:30:12;;;;;;;46.40;16.25;;;;;;;4.37;67.39;102106.31;5109897;28;20039;-86
2022/03/05 09:32:38;;;;;;;49.17;16.40;;;;;;;4.35;67.36;102119.16;5094278;28;20020;-86
2022/03/05 09:35:03;;;;;;;44.97;15.52;;;;;;;4.37;66.89;102111.47;5100229;28;20549;-86
2022/03/05 09:37:30;;;;;;;52.40;16.80;;;;;;;4.34;67.63;102107.16;5111942;28;20034;-86
2022/03/05 09:39:58;;;;;;;45.95;16.52;;;;;;;4.28;66.08;102113.84;5101094;28;20503;-86
2022/03/05 09:42:23;;;;;;;51.28;17.25;;;;;;;4.21;66.70;102106.84;5092159;28;20118;-86
2022/03/05 09:44:49;;;;;;;50.22;16.73;;;;;;;4.25;69.15;102106.06;5074352;28;20119;-86
2022/03/05 09:47:15;;;;;;;48.92;16.27;;;;;;;4.34;66.94;102114.84;5092571;28;20028;-86
2022/03/05 09:49:41;;;;;;;48.60;16.35;;;;;;;4.34;67.55;102112.28;5091849;28;20028;-86
2022/03/05 09:52:08;;;;;;;45.55;16.17;;;;;;;4.34;67.03;102119.97;5091886;28;20058;-86
2022/03/05 09:54:34;;;;;;;47.90;16.77;;;;;;;4.35;67.20;102114.03;5091686;28;20511;-86
2022/03/05 09:56:59;;;;;;;49.80;16.85;;;;;;;4.29;67.17;102119.03;5073901;28;20059;-86
2022/03/05 09:59:24;;;;;;;47.15;16.15;;;;;;;4.35;69.62;102119.16;5074085;28;20072;-86
2022/03/05 10:01:51;;;;;;;48.53;18.13;;;;;;;4.50;69.29;102116.06;5073702;28;20115;-86
2022/03/05 10:04:24;;;;;;;53.78;17.77;;;;;;;4.59;67.35;102118.81;5105380;28;20051;-86
2022/03/05 10:07:08;;;;;;;51.50;17.50;;;;;;;4.62;66.65;102121.44;5112303;28;20080;-86
2022/03/05 10:09:34;;;;;;;48.90;16.47;;;;;;;4.67;66.91;102119.84;5095186;28;20043;-85
2022/03/05 10:11:59;;;;;;;47.35;16.55;;;;;;;4.78;68.02;102117.47;5073723;28;20016;-86
2022/03/05 10:14:25;;;;;;;47.97;17.85;;;;;;;4.87;67.27;102122.81;5090457;28;20024;-86
2022/03/05 10:17:00;;;;;;;48.85;17.30;;;;;;;4.93;66.67;102112.66;5091174;28;20020;-85
2022/03/05 10:19:26;;;;;;;47.80;17.45;;;;;;;5.00;66.68;102117.06;5090265;28;20542;-86
2022/03/05 10:22:04;;;;;;;50.42;18.45;;;;;;;5.07;66.26;102116.34;5111815;28;20055;-86
2022/03/05 10:24:32;;;;;;;50.60;18.88;;;;;;;5.06;64.68;102124.03;5106933;28;20024;-86
2022/03/05 10:26:58;;;;;;;45.63;17.75;;;;;;;5.03;64.87;102123.97;5077371;28;20054;-86
2022/03/05 10:29:36;;;;;;;46.42;16.35;;;;;;;5.07;65.77;102108.66;5089920;28;20036;-86
2022/03/05 10:32:10;;;;;;;56.38;18.73;;;;;;;5.14;65.58;102117.34;5109925;28;20476;-86
2022/03/05 10:34:41;;;;;;;51.00;19.45;;;;;;;5.21;63.97;102123.47;5112123;28;20030;-86
2022/03/05 10:37:07;;;;;;;49.90;18.05;;;;;;;5.26;64.28;102117.56;5111460;28;20015;-86
2022/03/05 10:39:32;;;;;;;47.05;17.70;;;;;;;5.27;64.71;102115.84;5111731;28;20026;-86
2022/03/05 10:41:58;;;;;;;51.85;18.50;;;;;;;5.33;64.49;102121.97;5092680;28;20385;-86
2022/03/05 10:44:24;;;;;;;52.97;18.83;;;;;;;5.37;64.62;102115.19;5091131;28;20028;-85
2022/03/05 10:46:58;;;;;;;51.30;18.13;;;;;;;5.42;64.12;102111.00;5100530;28;20034;-85
2022/03/05 10:49:35;;;;;;;46.65;17.55;;;;;;;5.43;63.30;102116.19;5105140;28;20489;-85
2022/03/05 10:52:06;;;;;;;47.45;17.75;;;;;;;5.40;63.48;102113.53;5090628;28;20016;-85
2022/03/05 10:54:35;;;;;;;49.65;17.55;;;;;;;5.40;63.98;102121.25;5090759;28;20056;-85
2022/03/05 10:57:15;;;;;;;51.65;18.85;;;;;;;5.39;63.52;102116.94;5090291;28;20024;-85
2022/03/05 10:59:43;;;;;;;45.10;16.13;;;;;;;5.40;63.80;102110.09;5072841;28;20126;-86
2022/03/05 11:02:11;;;;;;;49.40;17.67;;;;;;;5.45;62.89;102111.94;5085843;28;20028;-85
2022/03/05 11:04:39;;;;;;;48.45;17.73;;;;;;;5.47;62.29;102117.06;5072210;28;20056;-86
2022/03/05 11:07:07;;;;;;;49.72;17.65;;;;;;;5.43;62.36;102117.88;5090123;28;20036;-85
2022/03/05 11:09:35;;;;;;;48.78;18.40;;;;;;;5.45;63.59;102117.06;5072817;28;20036;-85